Time;durP1;ratioP1;P1;durP2;ratioP2;P2;SDS_P1;SDS_P2;PMS_P1;PMS_P2;Temp;Humidity;BMP_temperature;BMP_pressure;BME280_temperature;BME280_humidity;BME280_pressure;Samples;Min_cycle;Max_cycle;Signal;HPM_P1;HPM_P2
2022/10/03 00:02:15;;;;;;;5.75;2.47;;;;;;;;;;5067885;28;24753;-48
2022/10/03 00:05:00;;;;;;;5.80;2.58;;;;;;;;;;5069299;28;24992;-47
2022/10/03 00:07:37;;;;;;;6.85;2.50;;;;;;;;;;5069205;28;24498;-47
2022/10/03 00:10:12;;;;;;;7.07;2.78;;;;;;;;;;5069337;28;24387;-47
2022/10/03 00:12:37;;;;;;;6.83;2.73;;;;;;;;;;5068818;28;24802;-46
2022/10/03 00:15:07;;;;;;;7.23;2.60;;;;;;;;;;5069256;28;24439;-47
2022/10/03 00:17:51;;;;;;;9.40;2.78;;;;;;;;;;5068936;28;24399;-47
2022/10/03 00:20:33;;;;;;;6.60;2.70;;;;;;;;;;5069126;28;24435;-47
2022/10/03 00:23:03;;;;;;;7.03;2.90;;;;;;;;;;5068899;28;24441;-47
2022/10/03 00:25:31;;;;;;;7.70;2.87;;;;;;;;;;5068883;28;24450;-47
2022/10/03 00:27:59;;;;;;;7.60;2.70;;;;;;;;;;5069080;28;24395;-47
2022/10/03 00:30:26;;;;;;;5.07;2.28;;;;;;;;;;5069168;28;24410;-46
2022/10/03 00:32:57;;;;;;;5.35;2.30;;;;;;;;;;5068512;28;25165;-46
2022/10/03 00:35:42;;;;;;;7.10;2.90;;;;;;;;;;5068399;28;25105;-46
2022/10/03 00:38:17;;;;;;;7.05;2.60;;;;;;;;;;5069151;28;24444;-47
2022/10/03 00:40:48;;;;;;;6.47;2.58;;;;;;;;;;5068907;28;24423;-46
2022/10/03 00:43:23;;;;;;;6.45;2.53;;;;;;;;;;5068190;28;24793;-46
2022/10/03 00:46:00;;;;;;;6.75;2.85;;;;;;;;;;5068381;28;24498;-47
2022/10/03 00:48:37;;;;;;;7.37;2.63;;;;;;;;;;5068668;28;24571;-47
2022/10/03 00:51:18;;;;;;;4.95;2.50;;;;;;;;;;5068847;28;24489;-47
2022/10/03 00:53:52;;;;;;;8.77;3.20;;;;;;;;;;5068338;28;24442;-47
2022/10/03 00:56:17;;;;;;;7.67;2.70;;;;;;;;;;5068251;28;24417;-47
2022/10/03 00:59:05;;;;;;;5.80;2.80;;;;;;;;;;5068606;28;24733;-47
2022/10/03 01:01:34;;;;;;;5.60;2.70;;;;;;;;;;5057121;28;24457;-46
2022/10/03 01:04:25;;;;;;;6.90;2.50;;;;;;;;;;5068478;28;24749;-47
2022/10/03 01:06:57;;;;;;;7.65;3.00;;;;;;;;;;5068065;28;24441;-47
2022/10/03 01:09:33;;;;;;;8.18;2.90;;;;;;;;;;5068387;28;24497;-47
2022/10/03 01:12:07;;;;;;;7.83;2.57;;;;;;;;;;5068323;28;24395;-46
2022/10/03 01:14:45;;;;;;;4.40;2.40;;;;;;;;;;5067760;28;24399;-45
2022/10/03 01:17:30;;;;;;;5.82;2.45;;;;;;;;;;5067800;28;24418;-46
2022/10/03 01:20:13;;;;;;;8.07;2.95;;;;;;;;;;5067810;28;24401;-46
2022/10/03 01:22:38;;;;;;;6.87;2.47;;;;;;;;;;5067744;28;24391;-46
2022/10/03 01:25:22;;;;;;;7.97;2.83;;;;;;;;;;5067886;28;24402;-46
2022/10/03 01:30:39;;;;;;;4.85;2.28;;;;;;;;;;5067822;28;24386;-47
2022/10/03 01:33:09;;;;;;;5.13;2.35;;;;;;;;;;5067471;28;24952;-47
2022/10/03 01:35:56;;;;;;;6.82;2.60;;;;;;;;;;5066973;28;24960;-46
2022/10/03 01:38:27;;;;;;;7.13;2.90;;;;;;;;;;5067650;28;24409;-46
2022/10/03 01:41:01;;;;;;;7.43;3.03;;;;;;;;;;5067145;28;24394;-46
2022/10/03 01:43:49;;;;;;;7.60;2.80;;;;;;;;;;5067266;28;24393;-47
2022/10/03 01:46:20;;;;;;;6.25;2.53;;;;;;;;;;5067019;28;24944;-46
2022/10/03 01:48:58;;;;;;;8.40;2.40;;;;;;;;;;5066911;28;24498;-47
2022/10/03 01:51:38;;;;;;;8.07;3.03;;;;;;;;;;5067482;28;24853;-45
2022/10/03 01:54:15;;;;;;;8.60;2.50;;;;;;;;;;5067404;28;24401;-46
2022/10/03 01:56:40;;;;;;;6.63;2.70;;;;;;;;;;5066838;28;24964;-46
2022/10/03 01:59:16;;;;;;;9.38;2.88;;;;;;;;;;5067312;28;24935;-46
2022/10/03 02:01:50;;;;;;;7.80;2.70;;;;;;;;;;5067202;28;24482;-47
2022/10/03 02:04:19;;;;;;;6.95;2.80;;;;;;;;;;5064978;28;24555;-47
2022/10/03 02:06:57;;;;;;;7.05;2.60;;;;;;;;;;5065852;28;24904;-46
2022/10/03 02:09:47;;;;;;;6.07;2.70;;;;;;;;;;5046022;28;24403;-46
2022/10/03 02:12:21;;;;;;;8.70;2.97;;;;;;;;;;5050697;28;24832;-47
2022/10/03 02:15:00;;;;;;;8.27;3.00;;;;;;;;;;5067142;28;24387;-47
2022/10/03 02:17:41;;;;;;;6.65;2.20;;;;;;;;;;5065419;28;24423;-46
2022/10/03 02:20:06;;;;;;;7.30;2.70;;;;;;;;;;5066915;28;24387;-47
2022/10/03 02:22:45;;;;;;;4.60;2.40;;;;;;;;;;5065031;28;24514;-46
2022/10/03 02:25:19;;;;;;;5.53;2.80;;;;;;;;;;5066444;28;24972;-46
2022/10/03 02:28:05;;;;;;;7.18;2.40;;;;;;;;;;5065099;28;24414;-46
2022/10/03 02:30:41;;;;;;;7.28;3.17;;;;;;;;;;5066493;28;24395;-47
2022/10/03 02:33:22;;;;;;;6.00;2.37;;;;;;;;;;5065167;28;24419;-46
2022/10/03 02:36:11;;;;;;;6.93;2.78;;;;;;;;;;5065229;28;24504;-46
2022/10/03 02:38:52;;;;;;;8.20;3.00;;;;;;;;;;5039554;28;24411;-47
2022/10/03 02:41:31;;;;;;;8.25;3.00;;;;;;;;;;5051139;28;24827;-46
2022/10/03 02:44:08;;;;;;;10.80;3.30;;;;;;;;;;5065805;28;24484;-45
2022/10/03 02:46:33;;;;;;;9.57;3.50;;;;;;;;;;5064932;28;24891;-46
2022/10/03 02:49:17;;;;;;;8.40;3.35;;;;;;;;;;5066403;28;24484;-45
2022/10/03 02:51:43;;;;;;;8.55;3.05;;;;;;;;;;5065307;28;24510;-46
2022/10/03 02:54:08;;;;;;;5.65;3.20;;;;;;;;;;5066424;28;24611;-46
2022/10/03 02:56:36;;;;;;;9.83;3.67;;;;;;;;;;5065102;28;24526;-46
2022/10/03 02:59:22;;;;;;;8.23;3.80;;;;;;;;;;5066555;28;24804;-45
2022/10/03 03:01:59;;;;;;;7.70;3.92;;;;;;;;;;5069083;28;24459;-47
2022/10/03 03:04:43;;;;;;;8.43;4.07;;;;;;;;;;5070170;28;24486;-47
2022/10/03 03:07:26;;;;;;;8.55;4.10;;;;;;;;;;5069194;28;25030;-45
2022/10/03 03:10:10;;;;;;;8.95;4.45;;;;;;;;;;5068638;28;25023;-45
2022/10/03 03:12:50;;;;;;;6.45;4.10;;;;;;;;;;5069797;28;25014;-46
2022/10/03 03:15:18;;;;;;;10.38;4.20;;;;;;;;;;5068385;28;24773;-46
2022/10/03 03:17:52;;;;;;;8.48;4.28;;;;;;;;;;5069963;28;24963;-45
2022/10/03 03:20:38;;;;;;;8.50;4.40;;;;;;;;;;5069080;28;24458;-46
2022/10/03 03:23:16;;;;;;;8.77;4.60;;;;;;;;;;5069769;28;24958;-46
2022/10/03 03:25:52;;;;;;;9.48;4.40;;;;;;;;;;5068384;28;24450;-46
2022/10/03 03:28:31;;;;;;;7.13;4.57;;;;;;;;;;5069853;28;24417;-46
2022/10/03 03:31:10;;;;;;;6.90;3.80;;;;;;;;;;5068477;28;24458;-46
2022/10/03 03:33:35;;;;;;;8.45;4.20;;;;;;;;;;5069366;28;24498;-46
2022/10/03 03:36:00;;;;;;;7.13;4.40;;;;;;;;;;5068328;28;24829;-46
2022/10/03 03:38:46;;;;;;;7.50;4.33;;;;;;;;;;5069727;28;24843;-46
2022/10/03 03:41:35;;;;;;;6.88;4.28;;;;;;;;;;5068647;28;24430;-45
2022/10/03 03:44:06;;;;;;;9.25;4.53;;;;;;;;;;5068309;28;25047;-47
2022/10/03 03:46:44;;;;;;;7.43;4.40;;;;;;;;;;5069662;28;24587;-46
2022/10/03 03:49:15;;;;;;;6.07;4.20;;;;;;;;;;5068160;28;24426;-46
2022/10/03 03:51:42;;;;;;;6.28;4.32;;;;;;;;;;5069555;28;24486;-46
2022/10/03 03:54:15;;;;;;;6.68;4.45;;;;;;;;;;5067950;28;25007;-45
2022/10/03 03:56:50;;;;;;;8.25;4.30;;;;;;;;;;5069521;28;24430;-46
2022/10/03 03:59:24;;;;;;;8.77;4.05;;;;;;;;;;5067485;28;24480;-46
2022/10/03 04:01:58;;;;;;;9.52;4.30;;;;;;;;;;5068228;28;24947;-46
2022/10/03 04:04:50;;;;;;;8.95;4.20;;;;;;;;;;5067746;28;24458;-46
2022/10/03 04:07:16;;;;;;;7.83;4.27;;;;;;;;;;5068325;28;24471;-45
2022/10/03 04:09:47;;;;;;;6.97;3.75;;;;;;;;;;5067023;28;24514;-54
2022/10/03 04:12:32;;;;;;;7.93;3.90;;;;;;;;;;5068459;28;24710;-46
2022/10/03 04:14:57;;;;;;;7.40;3.75;;;;;;;;;;5067756;28;24427;-46
2022/10/03 04:20:12;;;;;;;5.60;4.00;;;;;;;;;;5048762;28;24956;-46
2022/10/03 04:22:37;;;;;;;9.50;4.72;;;;;;;;;;5054852;28;24506;-46
2022/10/03 04:25:14;;;;;;;9.02;4.30;;;;;;;;;;5068741;28;24498;-47
2022/10/03 04:27:40;;;;;;;10.13;4.65;;;;;;;;;;5067508;28;24935;-46
2022/10/03 04:30:17;;;;;;;7.22;4.60;;;;;;;;;;5068611;28;24856;-46
2022/10/03 04:32:48;;;;;;;9.15;4.40;;;;;;;;;;5067266;28;24566;-47
2022/10/03 04:35:32;;;;;;;12.73;4.90;;;;;;;;;;5068126;28;24406;-47
2022/10/03 04:38:15;;;;;;;6.00;4.30;;;;;;;;;;5067370;28;24552;-47
2022/10/03 04:40:51;;;;;;;8.70;4.80;;;;;;;;;;5068550;28;24940;-47
2022/10/03 04:43:23;;;;;;;8.07;4.72;;;;;;;;;;5068034;28;24387;-47
2022/10/03 04:46:09;;;;;;;6.13;4.60;;;;;;;;;;5068660;28;24437;-46
2022/10/03 04:48:42;;;;;;;9.20;5.13;;;;;;;;;;5068369;28;24410;-47
2022/10/03 04:51:17;;;;;;;7.25;4.43;;;;;;;;;;5068245;28;24944;-47
2022/10/03 04:53:48;;;;;;;8.20;5.20;;;;;;;;;;5062685;28;24732;-47
2022/10/03 04:56:24;;;;;;;12.70;5.35;;;;;;;;;;5068123;28;24417;-47
2022/10/03 04:58:58;;;;;;;10.02;5.32;;;;;;;;;;5068365;28;24395;-47
2022/10/03 05:01:26;;;;;;;8.25;5.40;;;;;;;;;;5068299;28;25159;-47
2022/10/03 05:03:52;;;;;;;9.33;5.23;;;;;;;;;;5067801;28;24930;-47
2022/10/03 05:06:29;;;;;;;10.17;5.20;;;;;;;;;;5068009;28;24456;-47
2022/10/03 05:08:58;;;;;;;7.65;4.53;;;;;;;;;;5067856;28;24391;-46
2022/10/03 05:11:24;;;;;;;8.20;5.00;;;;;;;;;;5067718;28;24473;-47
2022/10/03 05:13:58;;;;;;;11.07;5.50;;;;;;;;;;5067652;28;24589;-47
2022/10/03 05:16:30;;;;;;;7.80;5.72;;;;;;;;;;5067928;28;24419;-47
2022/10/03 05:19:04;;;;;;;8.60;5.55;;;;;;;;;;5067899;28;24906;-47
2022/10/03 05:21:32;;;;;;;8.40;5.60;;;;;;;;;;5066916;28;24753;-47
2022/10/03 05:24:02;;;;;;;8.10;5.90;;;;;;;;;;5067153;28;24402;-47
2022/10/03 05:26:42;;;;;;;9.80;6.03;;;;;;;;;;5067782;28;24417;-46
2022/10/03 05:29:33;;;;;;;8.85;5.90;;;;;;;;;;5067056;28;24540;-46
2022/10/03 05:32:13;;;;;;;9.20;5.75;;;;;;;;;;5067472;28;24443;-47
2022/10/03 05:34:43;;;;;;;9.70;5.93;;;;;;;;;;5067769;28;24390;-46
2022/10/03 05:37:17;;;;;;;6.18;5.10;;;;;;;;;;5066990;28;25136;-46
2022/10/03 05:40:00;;;;;;;8.30;5.50;;;;;;;;;;5067259;28;25201;-46
2022/10/03 05:42:38;;;;;;;13.45;6.97;;;;;;;;;;5067308;28;24960;-47
2022/10/03 05:45:06;;;;;;;8.73;5.60;;;;;;;;;;5067053;28;24947;-47
2022/10/03 05:47:48;;;;;;;10.40;5.90;;;;;;;;;;5067208;28;24448;-45
2022/10/03 05:50:31;;;;;;;8.02;4.90;;;;;;;;;;5067288;28;24437;-47
2022/10/03 05:53:05;;;;;;;6.60;5.00;;;;;;;;;;5066981;28;24932;-46
2022/10/03 05:55:30;;;;;;;7.97;5.47;;;;;;;;;;5067298;28;24394;-46
2022/10/03 05:58:11;;;;;;;7.43;4.60;;;;;;;;;;5066393;28;24881;-47
2022/10/03 06:00:56;;;;;;;8.00;4.70;;;;;;;;;;5066930;28;25160;-47
2022/10/03 06:03:39;;;;;;;7.70;4.50;;;;;;;;;;5067300;28;24391;-46
2022/10/03 06:06:19;;;;;;;7.53;4.65;;;;;;;;;;5066856;28;24390;-47
2022/10/03 06:08:56;;;;;;;6.70;4.15;;;;;;;;;;5066811;28;24497;-47
2022/10/03 06:11:40;;;;;;;8.53;4.83;;;;;;;;;;5066896;28;24949;-47
2022/10/03 06:14:14;;;;;;;6.35;4.00;;;;;;;;;;5066818;28;24394;-47
2022/10/03 06:16:57;;;;;;;7.30;4.10;;;;;;;;;;5066681;28;25302;-46
2022/10/03 06:19:35;;;;;;;7.23;4.67;;;;;;;;;;5066617;28;25254;-46
2022/10/03 06:22:19;;;;;;;5.35;4.00;;;;;;;;;;5066590;28;24402;-47
2022/10/03 06:24:50;;;;;;;6.50;4.20;;;;;;;;;;5067021;28;24403;-47
2022/10/03 06:27:15;;;;;;;7.80;4.60;;;;;;;;;;5066148;28;24778;-47
2022/10/03 06:30:02;;;;;;;5.88;4.20;;;;;;;;;;5066585;28;24399;-47
2022/10/03 06:32:36;;;;;;;7.45;3.90;;;;;;;;;;5067010;28;24395;-47
2022/10/03 06:35:27;;;;;;;7.80;4.20;;;;;;;;;;5066521;28;24416;-48
2022/10/03 06:38:07;;;;;;;6.25;3.70;;;;;;;;;;5065491;28;24445;-46
2022/10/03 06:40:38;;;;;;;7.05;4.30;;;;;;;;;;5065651;28;24387;-47
2022/10/03 06:43:06;;;;;;;7.13;3.75;;;;;;;;;;5065343;28;24434;-46
2022/10/03 06:45:38;;;;;;;6.47;3.80;;;;;;;;;;5066503;28;24519;-47
2022/10/03 06:48:18;;;;;;;6.97;4.47;;;;;;;;;;5066272;28;24908;-47
2022/10/03 06:50:50;;;;;;;6.50;4.50;;;;;;;;;;5066616;28;24748;-47
2022/10/03 06:53:22;;;;;;;8.32;4.50;;;;;;;;;;5066219;28;25000;-47
2022/10/03 06:55:47;;;;;;;6.53;4.50;;;;;;;;;;5066834;28;24426;-48
2022/10/03 06:58:32;;;;;;;7.57;4.32;;;;;;;;;;5066421;28;24418;-47
2022/10/03 07:01:17;;;;;;;5.45;4.38;;;;;;;;;;5066128;28;24379;-47
2022/10/03 07:04:01;;;;;;;7.75;4.40;;;;;;;;;;5044507;28;24770;-47
2022/10/03 07:06:26;;;;;;;8.53;4.93;;;;;;;;;;5066675;28;24391;-47
2022/10/03 07:09:10;;;;;;;6.87;4.40;;;;;;;;;;5065836;28;24959;-46
2022/10/03 07:11:47;;;;;;;9.60;4.88;;;;;;;;;;5066430;28;24705;-47
2022/10/03 07:14:34;;;;;;;9.57;5.00;;;;;;;;;;5066350;28;24409;-47
2022/10/03 07:16:59;;;;;;;8.10;4.45;;;;;;;;;;5065925;28;24454;-47
2022/10/03 07:19:27;;;;;;;7.00;4.00;;;;;;;;;;5065940;28;25015;-47
2022/10/03 07:22:12;;;;;;;9.80;4.50;;;;;;;;;;5066448;28;24767;-48
2022/10/03 07:24:56;;;;;;;7.15;4.20;;;;;;;;;;5066204;28;24395;-47
2022/10/03 07:27:36;;;;;;;10.77;4.72;;;;;;;;;;5066082;28;25010;-47
2022/10/03 07:30:10;;;;;;;5.35;4.05;;;;;;;;;;5064184;28;24395;-47
2022/10/03 07:32:38;;;;;;;7.57;4.47;;;;;;;;;;5066312;28;24394;-47
2022/10/03 07:35:19;;;;;;;8.13;4.50;;;;;;;;;;5066002;28;24951;-47
2022/10/03 07:40:50;;;;;;;8.57;4.80;;;;;;;;;;5066038;28;24421;-46
2022/10/03 07:43:34;;;;;;;7.13;5.30;;;;;;;;;;5065739;28;24478;-47
2022/10/03 07:46:28;;;;;;;7.40;4.90;;;;;;;;;;5067575;28;24444;-47
2022/10/03 07:48:53;;;;;;;8.85;5.20;;;;;;;;;;5051867;28;24441;-48
2022/10/03 07:51:19;;;;;;;6.03;4.60;;;;;;;;;;5069771;28;24379;-47
2022/10/03 07:53:44;;;;;;;7.30;5.60;;;;;;;;;;5069434;28;24514;-47
2022/10/03 07:56:31;;;;;;;7.93;4.97;;;;;;;;;;5069441;28;24410;-46
2022/10/03 07:59:08;;;;;;;7.28;4.25;;;;;;;;;;5069324;28;25226;-47
2022/10/03 08:01:47;;;;;;;6.67;4.67;;;;;;;;;;5069714;28;24452;-46
2022/10/03 08:04:41;;;;;;;9.63;4.50;;;;;;;;;;5069004;28;24933;-45
2022/10/03 08:07:25;;;;;;;4.55;3.75;;;;;;;;;;5069368;28;24387;-45
2022/10/03 08:09:57;;;;;;;7.55;4.30;;;;;;;;;;5069335;28;24932;-46
2022/10/03 08:12:39;;;;;;;8.40;4.30;;;;;;;;;;5068908;28;24414;-46
2022/10/03 08:15:39;;;;;;;9.40;4.07;;;;;;;;;;5067595;28;24754;-47
2022/10/03 08:18:10;;;;;;;7.40;4.15;;;;;;;;;;4986894;28;24986;-46
2022/10/03 08:21:05;;;;;;;5.20;3.93;;;;;;;;;;5054717;28;24441;-47
2022/10/03 08:23:30;;;;;;;4.95;4.03;;;;;;;;;;5039514;28;24417;-47
2022/10/03 08:26:03;;;;;;;6.80;4.07;;;;;;;;;;5048806;28;24391;-46
2022/10/03 08:28:31;;;;;;;5.07;3.80;;;;;;;;;;5049024;28;24388;-48
2022/10/03 08:30:56;;;;;;;5.60;4.07;;;;;;;;;;5048981;28;24801;-47
2022/10/03 08:33:24;;;;;;;8.48;4.07;;;;;;;;;;5048208;28;24933;-47
2022/10/03 08:36:01;;;;;;;5.93;4.20;;;;;;;;;;5047184;28;24454;-47
2022/10/03 08:38:34;;;;;;;5.70;4.10;;;;;;;;;;5047997;28;24514;-47
2022/10/03 08:41:20;;;;;;;5.15;3.80;;;;;;;;;;5048647;28;24384;-47
2022/10/03 08:43:52;;;;;;;9.55;4.03;;;;;;;;;;5060908;28;24423;-47
2022/10/03 08:46:35;;;;;;;6.10;3.90;;;;;;;;;;5067321;28;24411;-47
2022/10/03 08:49:21;;;;;;;7.28;4.22;;;;;;;;;;5066836;28;24423;-46
2022/10/03 08:51:46;;;;;;;7.85;3.67;;;;;;;;;;5068073;28;24968;-45
2022/10/03 08:54:14;;;;;;;6.37;3.30;;;;;;;;;;5068458;28;24395;-45
2022/10/03 08:56:45;;;;;;;6.60;3.60;;;;;;;;;;5068194;28;24469;-47
2022/10/03 08:59:26;;;;;;;7.43;3.60;;;;;;;;;;5068152;28;25042;-46
2022/10/03 09:02:10;;;;;;;6.40;3.55;;;;;;;;;;5068379;28;24394;-46
2022/10/03 09:04:44;;;;;;;5.30;3.40;;;;;;;;;;5068238;28;24967;-46
2022/10/03 09:07:17;;;;;;;6.32;3.90;;;;;;;;;;5068046;28;24394;-45
2022/10/03 09:10:02;;;;;;;5.03;3.90;;;;;;;;;;5067575;28;25226;-45
2022/10/03 09:12:27;;;;;;;7.82;4.30;;;;;;;;;;5065939;28;24453;-44
2022/10/03 09:15:02;;;;;;;6.13;4.00;;;;;;;;;;5068229;28;24423;-46
2022/10/03 09:17:34;;;;;;;6.07;3.83;;;;;;;;;;5067862;28;24425;-46
2022/10/03 09:20:02;;;;;;;5.93;3.40;;;;;;;;;;5067793;28;24444;-47
2022/10/03 09:22:48;;;;;;;7.10;3.70;;;;;;;;;;5067438;28;24453;-46
2022/10/03 09:25:33;;;;;;;5.30;3.30;;;;;;;;;;5068134;28;24426;-45
2022/10/03 09:28:02;;;;;;;8.10;3.53;;;;;;;;;;5067787;28;24395;-45
2022/10/03 09:30:29;;;;;;;6.95;3.38;;;;;;;;;;5064951;28;24423;-46
2022/10/03 09:33:13;;;;;;;4.90;3.40;;;;;;;;;;5067303;28;24391;-46
2022/10/03 09:35:57;;;;;;;6.00;3.42;;;;;;;;;;5067085;28;25023;-45
2022/10/03 09:38:35;;;;;;;6.55;3.60;;;;;;;;;;5067282;28;24414;-46
2022/10/03 09:41:19;;;;;;;6.32;3.20;;;;;;;;;;5066987;28;24410;-47
2022/10/03 09:44:11;;;;;;;8.77;3.55;;;;;;;;;;5067433;28;24540;-46
2022/10/03 09:46:37;;;;;;;7.75;3.50;;;;;;;;;;5067032;28;24446;-47
2022/10/03 09:49:23;;;;;;;7.22;3.50;;;;;;;;;;5067101;28;24437;-47
2022/10/03 09:51:56;;;;;;;6.03;3.10;;;;;;;;;;5065184;28;24440;-47
2022/10/03 09:54:22;;;;;;;7.28;3.28;;;;;;;;;;5066828;28;24498;-47
2022/10/03 09:56:53;;;;;;;8.13;3.35;;;;;;;;;;5066960;28;24513;-47
2022/10/03 09:59:24;;;;;;;5.50;2.90;;;;;;;;;;5066653;28;25223;-47
2022/10/03 10:01:56;;;;;;;4.68;2.83;;;;;;;;;;5066826;28;24390;-47
2022/10/03 10:04:37;;;;;;;5.72;2.60;;;;;;;;;;5066664;28;24981;-47
2022/10/03 10:07:29;;;;;;;6.78;3.00;;;;;;;;;;5067009;28;24431;-47
2022/10/03 10:09:57;;;;;;;8.60;2.60;;;;;;;;;;5066696;28;25053;-47
2022/10/03 10:12:25;;;;;;;6.05;2.60;;;;;;;;;;5063955;28;24461;-47
2022/10/03 10:15:05;;;;;;;5.05;2.70;;;;;;;;;;5067124;28;25401;-47
2022/10/03 10:17:49;;;;;;;5.70;2.70;;;;;;;;;;5066891;28;24438;-47
2022/10/03 10:20:33;;;;;;;4.13;2.40;;;;;;;;;;5066766;28;24387;-47
2022/10/03 10:23:09;;;;;;;7.07;2.70;;;;;;;;;;5046654;28;24424;-47
2022/10/03 10:25:46;;;;;;;8.10;3.20;;;;;;;;;;5046724;28;24746;-47
2022/10/03 10:28:26;;;;;;;5.82;2.90;;;;;;;;;;5047049;28;24384;-47
2022/10/03 10:31:16;;;;;;;6.25;2.80;;;;;;;;;;5046673;28;24454;-47
2022/10/03 10:33:50;;;;;;;5.60;2.53;;;;;;;;;;5046168;28;25046;-46
2022/10/03 10:36:34;;;;;;;5.45;2.60;;;;;;;;;;5046578;28;24442;-47
2022/10/03 10:38:59;;;;;;;5.75;2.80;;;;;;;;;;5046592;28;24468;-46
2022/10/03 10:41:53;;;;;;;5.65;2.78;;;;;;;;;;5046120;28;24395;-47
2022/10/03 10:44:37;;;;;;;5.28;2.53;;;;;;;;;;5046484;28;24434;-46
2022/10/03 10:47:12;;;;;;;6.47;2.33;;;;;;;;;;5046279;28;24406;-47
2022/10/03 10:49:56;;;;;;;6.45;2.63;;;;;;;;;;5045802;28;24592;-47
2022/10/03 10:52:24;;;;;;;5.22;2.53;;;;;;;;;;5046734;28;24734;-47
2022/10/03 10:54:49;;;;;;;7.32;2.70;;;;;;;;;;5065318;28;25018;-46
2022/10/03 10:57:24;;;;;;;5.30;2.70;;;;;;;;;;5064782;28;24523;-46
2022/10/03 11:00:02;;;;;;;6.68;2.45;;;;;;;;;;5065913;28;24531;-47
2022/10/03 11:02:53;;;;;;;6.25;2.47;;;;;;;;;;5064535;28;24434;-46
2022/10/03 11:05:35;;;;;;;5.70;2.23;;;;;;;;;;5065030;28;24411;-46
2022/10/03 11:08:12;;;;;;;5.97;2.53;;;;;;;;;;5064896;28;24979;-46
2022/10/03 11:10:44;;;;;;;4.97;2.67;;;;;;;;;;5064817;28;24976;-46
2022/10/03 11:13:32;;;;;;;6.95;2.53;;;;;;;;;;5064629;28;24437;-45
2022/10/03 11:16:16;;;;;;;6.20;2.50;;;;;;;;;;5066004;28;24433;-45
2022/10/03 11:18:50;;;;;;;3.55;2.20;;;;;;;;;;5046173;28;24406;-46
2022/10/03 11:21:29;;;;;;;5.38;2.40;;;;;;;;;;5066051;28;24406;-46
2022/10/03 11:24:17;;;;;;;3.72;2.08;;;;;;;;;;5069859;28;24401;-46
2022/10/03 11:27:01;;;;;;;3.47;1.98;;;;;;;;;;5070130;28;24496;-46
2022/10/03 11:29:44;;;;;;;5.47;2.70;;;;;;;;;;5069673;28;25059;-46
2022/10/03 11:32:18;;;;;;;5.60;2.45;;;;;;;;;;5069910;28;24398;-47
2022/10/03 11:35:02;;;;;;;4.20;2.40;;;;;;;;;;5069759;28;24431;-46
2022/10/03 11:37:31;;;;;;;5.80;2.13;;;;;;;;;;5069886;28;24430;-46
2022/10/03 11:40:03;;;;;;;6.60;2.50;;;;;;;;;;5069760;28;24441;-46
2022/10/03 11:42:49;;;;;;;7.70;2.50;;;;;;;;;;5067324;28;24460;-46
2022/10/03 11:45:34;;;;;;;6.10;2.70;;;;;;;;;;5069567;28;24389;-46
2022/10/03 11:48:13;;;;;;;4.82;2.42;;;;;;;;;;5069634;28;24793;-47
2022/10/03 11:50:44;;;;;;;6.00;2.70;;;;;;;;;;5069401;28;24474;-47
2022/10/03 11:53:33;;;;;;;4.88;2.67;;;;;;;;;;5069607;28;24414;-47
2022/10/03 11:56:04;;;;;;;7.13;2.60;;;;;;;;;;5069147;28;24980;-46
2022/10/03 11:58:37;;;;;;;3.60;2.30;;;;;;;;;;5069227;28;24414;-46
2022/10/03 12:01:21;;;;;;;4.60;2.50;;;;;;;;;;5068959;28;24541;-47
2022/10/03 12:03:50;;;;;;;6.70;2.40;;;;;;;;;;5067611;28;24402;-46
2022/10/03 12:09:18;;;;;;;4.40;2.70;;;;;;;;;;5069640;28;24389;-46
2022/10/03 12:11:51;;;;;;;4.18;2.30;;;;;;;;;;5069112;28;24428;-47
2022/10/03 12:14:22;;;;;;;6.15;2.47;;;;;;;;;;5069190;28;24477;-46
2022/10/03 12:17:01;;;;;;;6.03;2.50;;;;;;;;;;5069267;28;24414;-47
2022/10/03 12:19:45;;;;;;;6.03;2.60;;;;;;;;;;5068571;28;24453;-46
2022/10/03 12:22:16;;;;;;;5.07;2.00;;;;;;;;;;5069106;28;25272;-46
2022/10/03 12:24:42;;;;;;;4.40;2.10;;;;;;;;;;5068912;28;24403;-46
2022/10/03 12:27:29;;;;;;;3.42;1.95;;;;;;;;;;5069118;28;24504;-46
2022/10/03 12:30:03;;;;;;;4.88;2.22;;;;;;;;;;5068705;28;24753;-46
2022/10/03 12:32:44;;;;;;;4.78;2.00;;;;;;;;;;5065674;28;24544;-47
2022/10/03 12:35:24;;;;;;;6.43;2.50;;;;;;;;;;5068909;28;24508;-47
2022/10/03 12:37:49;;;;;;;5.85;2.50;;;;;;;;;;5059862;28;24429;-46
2022/10/03 12:40:17;;;;;;;4.50;2.10;;;;;;;;;;5064680;28;24844;-47
2022/10/03 12:43:01;;;;;;;3.10;2.15;;;;;;;;;;5064447;28;24453;-47
2022/10/03 12:45:26;;;;;;;4.93;2.50;;;;;;;;;;5063769;28;25053;-47
2022/10/03 12:48:03;;;;;;;4.63;2.13;;;;;;;;;;5055289;28;25048;-48
2022/10/03 12:50:29;;;;;;;3.97;1.98;;;;;;;;;;5051861;28;24433;-47
2022/10/03 12:53:13;;;;;;;4.60;2.22;;;;;;;;;;5058778;28;24653;-46
2022/10/03 12:55:44;;;;;;;5.35;2.00;;;;;;;;;;5063632;28;24877;-46
2022/10/03 12:58:17;;;;;;;4.63;2.10;;;;;;;;;;5067210;28;24515;-45
2022/10/03 13:01:06;;;;;;;4.50;2.30;;;;;;;;;;5059826;28;24478;-46
2022/10/03 13:04:10;;;;;;;5.78;2.40;;;;;;;;;;5055741;28;24426;-46
2022/10/03 13:06:35;;;;;;;4.78;2.67;;;;;;;;;;4986276;28;24565;-47
2022/10/03 13:09:03;;;;;;;5.27;3.00;;;;;;;;;;4984501;28;24433;-46
2022/10/03 13:11:31;;;;;;;5.22;2.10;;;;;;;;;;5015050;28;24450;-46
2022/10/03 13:14:08;;;;;;;4.47;1.90;;;;;;;;;;5050634;28;24454;-45
2022/10/03 13:16:37;;;;;;;3.10;1.70;;;;;;;;;;5054557;28;24438;-46
2022/10/03 13:19:09;;;;;;;4.23;2.10;;;;;;;;;;5062424;28;24415;-47
2022/10/03 13:21:54;;;;;;;4.22;1.92;;;;;;;;;;5063742;28;24577;-45
2022/10/03 13:24:25;;;;;;;4.55;2.05;;;;;;;;;;5047625;28;24395;-46
2022/10/03 13:26:50;;;;;;;7.20;2.08;;;;;;;;;;5065602;28;24461;-47
2022/10/03 13:29:28;;;;;;;6.10;2.03;;;;;;;;;;5066977;28;24464;-46
2022/10/03 13:32:04;;;;;;;6.55;2.10;;;;;;;;;;5063708;28;24517;-45
2022/10/03 13:34:33;;;;;;;4.32;1.98;;;;;;;;;;5049719;28;24546;-46
2022/10/03 13:37:08;;;;;;;3.60;2.10;;;;;;;;;;5059473;28;24481;-46
2022/10/03 13:39:36;;;;;;;3.30;2.30;;;;;;;;;;5074268;28;24516;-46
2022/10/03 13:42:09;;;;;;;3.90;1.93;;;;;;;;;;5063393;28;24441;-46
2022/10/03 13:44:39;;;;;;;3.40;1.90;;;;;;;;;;5059362;28;24445;-46
2022/10/03 13:47:04;;;;;;;3.40;2.20;;;;;;;;;;5067203;28;24785;-46
2022/10/03 13:49:33;;;;;;;5.13;2.10;;;;;;;;;;5064982;28;24774;-47
2022/10/03 13:51:58;;;;;;;6.97;2.60;;;;;;;;;;5062345;28;24461;-46
2022/10/03 13:54:33;;;;;;;3.50;2.00;;;;;;;;;;5062956;28;24468;-47
2022/10/03 13:57:18;;;;;;;5.40;2.30;;;;;;;;;;5063452;28;24442;-46
2022/10/03 13:59:57;;;;;;;5.72;2.20;;;;;;;;;;5065018;28;24415;-46
2022/10/03 14:02:40;;;;;;;4.68;2.30;;;;;;;;;;5067284;28;24515;-47
2022/10/03 14:05:25;;;;;;;3.90;2.20;;;;;;;;;;5067182;28;24975;-47
2022/10/03 14:08:10;;;;;;;4.72;1.80;;;;;;;;;;5064851;28;24426;-48
2022/10/03 14:10:35;;;;;;;5.78;2.15;;;;;;;;;;5062654;28;24542;-46
2022/10/03 14:13:00;;;;;;;6.35;2.20;;;;;;;;;;5048686;28;24540;-47
2022/10/03 14:15:31;;;;;;;3.67;1.90;;;;;;;;;;5064273;28;24434;-47
2022/10/03 14:18:09;;;;;;;4.03;2.20;;;;;;;;;;5066564;28;24427;-46
2022/10/03 14:20:39;;;;;;;3.33;2.08;;;;;;;;;;5066073;28;25045;-47
2022/10/03 14:23:04;;;;;;;5.60;1.85;;;;;;;;;;5065063;28;24448;-47
2022/10/03 14:25:34;;;;;;;5.00;2.70;;;;;;;;;;5067290;28;24476;-47
2022/10/03 14:28:17;;;;;;;3.57;1.90;;;;;;;;;;5067178;28;24929;-47
2022/10/03 14:30:54;;;;;;;5.40;2.40;;;;;;;;;;5066749;28;24463;-47
2022/10/03 14:33:33;;;;;;;4.13;2.20;;;;;;;;;;5055035;28;24465;-46
2022/10/03 14:36:14;;;;;;;4.95;2.15;;;;;;;;;;5055108;28;24593;-48
2022/10/03 14:38:59;;;;;;;6.20;2.60;;;;;;;;;;5053314;28;24839;-48
2022/10/03 14:41:30;;;;;;;5.83;2.33;;;;;;;;;;5058373;28;24757;-47
2022/10/03 14:43:57;;;;;;;4.78;2.22;;;;;;;;;;5063758;28;24453;-47
2022/10/03 14:46:24;;;;;;;4.55;2.60;;;;;;;;;;5064833;28;24427;-47
2022/10/03 14:48:51;;;;;;;5.20;2.40;;;;;;;;;;5053427;28;24771;-47
2022/10/03 14:51:22;;;;;;;3.50;2.23;;;;;;;;;;5058030;28;24426;-47
2022/10/03 14:53:54;;;;;;;5.10;2.40;;;;;;;;;;5050389;28;24999;-46
2022/10/03 14:56:19;;;;;;;5.18;2.80;;;;;;;;;;5067197;28;24449;-47
2022/10/03 14:58:46;;;;;;;4.47;2.13;;;;;;;;;;5069132;28;24453;-47
2022/10/03 15:01:20;;;;;;;4.30;2.20;;;;;;;;;;5067476;28;24477;-47
2022/10/03 15:03:58;;;;;;;5.90;2.27;;;;;;;;;;5063970;28;24476;-46
2022/10/03 15:06:34;;;;;;;4.90;2.20;;;;;;;;;;5066930;28;24422;-47
2022/10/03 15:09:01;;;;;;;5.53;2.38;;;;;;;;;;5062124;28;24437;-47
2022/10/03 15:11:28;;;;;;;4.32;2.00;;;;;;;;;;5058477;28;24534;-47
2022/10/03 15:13:55;;;;;;;3.60;2.40;;;;;;;;;;5050651;28;24833;-46
2022/10/03 15:16:21;;;;;;;5.20;2.78;;;;;;;;;;5062144;28;24437;-46
2022/10/03 15:19:00;;;;;;;2.47;1.75;;;;;;;;;;5063422;28;24430;-46
2022/10/03 15:21:26;;;;;;;4.30;2.00;;;;;;;;;;5066855;28;24484;-47
2022/10/03 15:24:00;;;;;;;5.47;2.20;;;;;;;;;;5062995;28;24960;-47
2022/10/03 15:26:27;;;;;;;3.95;2.40;;;;;;;;;;5068546;28;24556;-47
2022/10/03 15:29:01;;;;;;;3.20;1.60;;;;;;;;;;5068449;28;24443;-46
2022/10/03 15:31:31;;;;;;;4.28;2.40;;;;;;;;;;5056238;28;24426;-47
2022/10/03 15:33:56;;;;;;;4.10;2.20;;;;;;;;;;5067993;28;24571;-46
2022/10/03 15:36:24;;;;;;;4.17;2.30;;;;;;;;;;5057930;28;25076;-46
2022/10/03 15:38:52;;;;;;;3.28;1.60;;;;;;;;;;5068648;28;25062;-47
2022/10/03 15:41:17;;;;;;;3.95;1.63;;;;;;;;;;5066918;28;24434;-47
2022/10/03 15:43:49;;;;;;;3.47;1.77;;;;;;;;;;5069305;28;24398;-46
2022/10/03 15:46:28;;;;;;;4.80;1.73;;;;;;;;;;5067331;28;24434;-46